createdAt,value
2022-08-02T00:00:17.865Z,100333.09
2022-08-02T00:02:22.382Z,100336.88
2022-08-02T00:04:26.945Z,100336.26
2022-08-02T00:06:31.562Z,100342.91
2022-08-02T00:08:36.185Z,100337.78
2022-08-02T00:10:40.703Z,100337.38
2022-08-02T00:12:45.209Z,100336.37
2022-08-02T00:14:49.745Z,100334.46
2022-08-02T00:16:54.263Z,100336.17
2022-08-02T00:18:58.879Z,100332.38
2022-08-02T00:21:04.011Z,100341.13
2022-08-02T00:23:08.738Z,100341.02
2022-08-02T00:25:13.465Z,100338.64
2022-08-02T00:27:18.082Z,100338.62
2022-08-02T00:29:22.770Z,100338.64
2022-08-02T00:31:27.326Z,100336.03
2022-08-02T00:34:31.947Z,100339.95
2022-08-02T00:36:41.492Z,100338
2022-08-02T00:38:46.013Z,100337.08
2022-08-02T00:40:52.435Z,100334.22
2022-08-02T00:43:02.353Z,100334.88
2022-08-02T00:45:06.940Z,100340.05
2022-08-02T00:47:11.567Z,100336.87
2022-08-02T00:49:25.663Z,100335.07
2022-08-02T00:51:30.426Z,100337.66
2022-08-02T00:53:35.056Z,100334.81
2022-08-02T00:55:40.898Z,100338.81
2022-08-02T00:57:45.521Z,100337.16
2022-08-02T00:59:50.245Z,100338.2
2022-08-02T01:01:58.850Z,100335.57
2022-08-02T01:04:03.585Z,100340.38
2022-08-02T01:06:15.476Z,100340.38
2022-08-02T01:08:19.998Z,100340.64
2022-08-02T01:10:35.570Z,100339.63
2022-08-02T01:12:40.159Z,100336.63
2022-08-02T01:14:44.814Z,100339.18
2022-08-02T01:16:49.447Z,100340.77
2022-08-02T01:18:54.169Z,100338.92
2022-08-02T01:20:58.886Z,100334.5
2022-08-02T01:23:04.336Z,100341.69
2022-08-02T01:25:08.882Z,100340.14
2022-08-02T01:27:13.597Z,100337.7
2022-08-02T01:29:18.084Z,100338.27
2022-08-02T01:31:22.690Z,100340.33
2022-08-02T01:33:27.184Z,100344
2022-08-02T01:35:52.224Z,100344.17
2022-08-02T01:37:56.743Z,100339.03
2022-08-02T01:40:01.465Z,100340.2
2022-08-02T01:42:06.090Z,100339.47
2022-08-02T01:44:10.716Z,100344
2022-08-02T01:46:15.402Z,100347.15
2022-08-02T01:48:19.918Z,100345.52
2022-08-02T01:50:24.476Z,100348.2
2022-08-02T01:52:29.095Z,100350.11
2022-08-02T01:54:33.817Z,100346.33
2022-08-02T01:56:38.644Z,100346.6
2022-08-02T01:58:43.333Z,100341.78
2022-08-02T02:00:48.115Z,100343.25
2022-08-02T02:02:52.916Z,100344.84
2022-08-02T02:04:58.971Z,100347.3
2022-08-02T02:07:03.590Z,100346.42
2022-08-02T02:09:08.188Z,100344.95
2022-08-02T02:12:14.912Z,100346.99
2022-08-02T02:14:20.113Z,100350.82
2022-08-02T02:16:24.747Z,100352.85
2022-08-02T02:18:29.379Z,100354.09
2022-08-02T02:20:33.987Z,100354.61
2022-08-02T02:22:40.048Z,100354.34
2022-08-02T02:24:46.652Z,100356.3
2022-08-02T02:26:53.413Z,100356.45
2022-08-02T02:28:58.001Z,100355.95
2022-08-02T02:31:02.626Z,100357.05
2022-08-02T02:33:07.249Z,100359.39
2022-08-02T02:35:11.867Z,100356.41
2022-08-02T02:37:16.488Z,100353.2
2022-08-02T02:39:21.249Z,100353.86
2022-08-02T02:41:25.733Z,100357.09
2022-08-02T02:43:32.708Z,100357.01
2022-08-02T02:45:37.200Z,100358.66
2022-08-02T02:47:43.022Z,100362.64
2022-08-02T02:49:47.597Z,100360.64
2022-08-02T02:51:52.320Z,100364.37
2022-08-02T02:54:35.479Z,100361.28
2022-08-02T02:56:40.176Z,100360.75
2022-08-02T02:58:44.892Z,100357.99
2022-08-02T03:00:49.893Z,100359.36
2022-08-02T03:02:54.656Z,100358.34
2022-08-02T03:04:59.535Z,100355.89
2022-08-02T03:07:04.077Z,100356.52
2022-08-02T03:09:08.688Z,100357.78
2022-08-02T03:11:16.082Z,100358.23
2022-08-02T03:13:20.631Z,100361.44
2022-08-02T03:15:25.172Z,100360.46
2022-08-02T03:17:29.979Z,100366.73
2022-08-02T03:19:34.525Z,100364.84
2022-08-02T03:21:39.004Z,100364.03
2022-08-02T03:23:44.824Z,100360.88
2022-08-02T03:25:49.480Z,100362.72
2022-08-02T03:27:54.197Z,100363.5
2022-08-02T03:29:58.792Z,100364.13
2022-08-02T03:32:03.337Z,100363.36
2022-08-02T03:34:07.960Z,100363.41
2022-08-02T03:36:12.582Z,100368.48
2022-08-02T03:38:17.191Z,100373.93
2022-08-02T03:40:21.796Z,100376.03
2022-08-02T03:42:26.550Z,100373.16
2022-08-02T03:44:31.070Z,100378.23
2022-08-02T03:46:35.676Z,100382.71
2022-08-02T03:48:40.184Z,100384.55
2022-08-02T03:50:44.826Z,100384.84
2022-08-02T03:52:49.442Z,100389.3
2022-08-02T03:54:54.175Z,100392.26
2022-08-02T03:56:59.108Z,100398.09
2022-08-02T03:59:03.694Z,100403.47
2022-08-02T04:01:08.358Z,100405.95
2022-08-02T04:03:21.065Z,100405.2
2022-08-02T04:05:25.782Z,100408.06
2022-08-02T04:08:38.246Z,100410.08
2022-08-02T04:10:43.266Z,100415.34
2022-08-02T04:12:47.949Z,100420.9
2022-08-02T04:14:52.656Z,100424.09
2022-08-02T04:16:57.148Z,100423.48
2022-08-02T04:19:01.948Z,100432.51
2022-08-02T04:21:06.635Z,100436.05
2022-08-02T04:23:11.157Z,100435.31
2022-08-02T04:25:19.057Z,100436.87
2022-08-02T04:28:18.322Z,100437.19
2022-08-02T04:30:31.247Z,100445.56
2022-08-02T04:32:35.766Z,100450.33
2022-08-02T04:34:40.519Z,100446.39
2022-08-02T04:36:50.973Z,100446.78
2022-08-02T04:38:55.468Z,100445.58
2022-08-02T04:41:00.115Z,100447.53
2022-08-02T04:43:04.733Z,100448.21
2022-08-02T04:45:09.341Z,100441.97
2022-08-02T04:48:04.388Z,100446.99
2022-08-02T04:50:10.209Z,100447.38
2022-08-02T04:52:15.380Z,100447.72
2022-08-02T04:54:20.065Z,100446.27
2022-08-02T04:56:24.688Z,100451.48
2022-08-02T04:58:44.875Z,100459.33
2022-08-02T05:00:49.581Z,100462.15
2022-08-02T05:02:54.235Z,100465.38
2022-08-02T05:04:58.733Z,100464.63
2022-08-02T05:07:03.363Z,100464.95
2022-08-02T05:09:07.948Z,100470.88
2022-08-02T05:11:14.039Z,100469.5
2022-08-02T05:13:19.073Z,100474.7
2022-08-02T05:15:23.791Z,100469.94
2022-08-02T05:17:28.514Z,100475.76
2022-08-02T05:19:33.134Z,100472.75
2022-08-02T05:21:37.965Z,100476.82
2022-08-02T05:23:42.683Z,100477.33
2022-08-02T05:25:47.410Z,100476.31
2022-08-02T05:27:52.128Z,100480.03
2022-08-02T05:29:58.136Z,100488.05
2022-08-02T05:32:02.710Z,100490.45
2022-08-02T05:34:12.855Z,100496.98
2022-08-02T05:36:18.532Z,100492.2
2022-08-02T05:38:27.320Z,100492.41
2022-08-02T05:40:34.302Z,100496.55
2022-08-02T05:42:58.068Z,100493.98
2022-08-02T05:45:02.589Z,100498.03
2022-08-02T05:47:07.107Z,100499.66
2022-08-02T05:49:11.836Z,100503.84
2022-08-02T05:51:19.689Z,100503.66
2022-08-02T05:53:24.218Z,100506.87
2022-08-02T05:55:28.768Z,100507.17
2022-08-02T05:57:44.414Z,100508.84
2022-08-02T05:59:49.172Z,100512.37
2022-08-02T06:01:54.073Z,100517.41
2022-08-02T06:03:58.738Z,100511.88
2022-08-02T06:06:03.164Z,100519.42
2022-08-02T06:08:10.002Z,100522.45
2022-08-02T06:10:14.502Z,100520.13
2022-08-02T06:12:19.306Z,100521.16
2022-08-02T06:14:31.554Z,100524.92
2022-08-02T06:16:43.347Z,100524.17
2022-08-02T06:18:49.705Z,100524.22
2022-08-02T06:20:54.322Z,100525.97
2022-08-02T06:22:59.152Z,100525.64
2022-08-02T06:25:03.772Z,100532.93
2022-08-02T06:27:08.395Z,100529.45
2022-08-02T06:29:13.017Z,100532.14
2022-08-02T06:31:17.842Z,100534.19
2022-08-02T06:33:22.536Z,100537.08
2022-08-02T06:35:27.394Z,100537.33
2022-08-02T06:37:32.567Z,100540.3
2022-08-02T06:39:38.169Z,100540.96
2022-08-02T06:41:42.897Z,100540.21
2022-08-02T06:43:47.512Z,100540.69
2022-08-02T06:45:51.989Z,100538.84
2022-08-02T06:47:56.449Z,100539
2022-08-02T06:50:01.340Z,100539.97
2022-08-02T06:52:06.097Z,100539.98
2022-08-02T06:54:10.823Z,100544.75
2022-08-02T06:56:15.415Z,100539.63
2022-08-02T06:58:19.965Z,100541.63
2022-08-02T07:00:24.547Z,100538.44
2022-08-02T07:02:29.268Z,100539.83
2022-08-02T07:04:33.793Z,100537.98
2022-08-02T07:06:38.453Z,100539.8
2022-08-02T07:09:19.314Z,100544.64
2022-08-02T07:11:25.680Z,100541.73
2022-08-02T07:13:30.194Z,100540.95
2022-08-02T07:15:34.814Z,100538.02
2022-08-02T07:17:39.540Z,100533.56
2022-08-02T07:19:44.163Z,100529.45
2022-08-02T07:21:59.474Z,100534.31
2022-08-02T07:24:16.239Z,100531.23
2022-08-02T07:26:20.756Z,100529.73
2022-08-02T07:28:26.028Z,100529.34
2022-08-02T07:30:31.229Z,100533.59
2022-08-02T07:32:36.754Z,100531.77
2022-08-02T07:34:43.957Z,100534.97
2022-08-02T07:36:57.755Z,100530.86
2022-08-02T07:39:07.118Z,100527.52
2022-08-02T07:41:15.740Z,100528.98
2022-08-02T07:43:20.359Z,100530.39
2022-08-02T07:45:25.084Z,100532.34
2022-08-02T07:47:29.810Z,100529.3
2022-08-02T07:49:34.658Z,100525.48
2022-08-02T07:51:39.659Z,100523.53
2022-08-02T07:54:02.349Z,100524.21
2022-08-02T07:56:08.768Z,100525.11
2022-08-02T07:58:14.617Z,100525.73
2022-08-02T08:00:19.378Z,100526.99
2022-08-02T08:02:23.938Z,100522.63
2022-08-02T08:04:28.481Z,100521.5
2022-08-02T08:06:33.102Z,100525.05
2022-08-02T08:08:37.724Z,100528.12
2022-08-02T08:10:42.455Z,100524.43
2022-08-02T08:12:47.065Z,100524.33
2022-08-02T08:14:51.690Z,100524.01
2022-08-02T08:16:56.391Z,100527.97
2022-08-02T08:19:01.135Z,100526.83
2022-08-02T08:21:06.062Z,100523.92
2022-08-02T08:23:11.681Z,100536.69
2022-08-02T08:25:16.329Z,100534.41
2022-08-02T08:27:20.953Z,100540.34
2022-08-02T08:29:25.577Z,100537.97
2022-08-02T08:31:30.292Z,100539.53
2022-08-02T08:33:35.160Z,100545.88
2022-08-02T08:35:39.945Z,100545.2
2022-08-02T08:37:44.533Z,100542.51
2022-08-02T08:39:59.135Z,100545.35
2022-08-02T08:42:03.948Z,100546.04
2022-08-02T08:44:08.568Z,100543.98
2022-08-02T08:46:13.172Z,100540.76
2022-08-02T08:48:31.933Z,100547.44
2022-08-02T08:50:36.670Z,100548.41
2022-08-02T08:52:41.282Z,100553.53
2022-08-02T08:54:49.746Z,100550.63
2022-08-02T08:56:54.717Z,100554.58
2022-08-02T08:58:59.317Z,100549.97
2022-08-02T09:01:04.102Z,100551.38
2022-08-02T09:03:08.780Z,100553.07
2022-08-02T09:05:13.396Z,100545.79
2022-08-02T09:07:17.931Z,100548.64
2022-08-02T09:09:22.487Z,100548.8
2022-08-02T09:11:27.180Z,100544.28
2022-08-02T09:13:46.954Z,100545.16
2022-08-02T09:15:51.564Z,100544.11
2022-08-02T09:17:56.293Z,100539.34
2022-08-02T09:20:00.915Z,100540.34
2022-08-02T09:22:05.736Z,100536.25
2022-08-02T09:24:10.242Z,100542.06
2022-08-02T09:26:14.883Z,100538.04
2022-08-02T09:28:19.603Z,100536.66
2022-08-02T09:30:24.218Z,100548.57
2022-08-02T09:32:28.741Z,100545.72
2022-08-02T09:34:33.239Z,100548.94
2022-08-02T09:36:38.117Z,100549.88
2022-08-02T09:38:44.651Z,100547.63
2022-08-02T09:40:49.156Z,100549.13
2022-08-02T09:42:53.689Z,100545.63
2022-08-02T09:44:58.338Z,100547.03
2022-08-02T09:47:03.035Z,100545.52
2022-08-02T09:49:07.926Z,100543.38
2022-08-02T09:51:15.141Z,100549.14
2022-08-02T09:53:19.751Z,100544.28
2022-08-02T09:55:24.277Z,100549.69
2022-08-02T09:57:28.904Z,100548.75
2022-08-02T09:59:33.525Z,100543.04
2022-08-02T10:01:40.357Z,100542.85
2022-08-02T10:04:23.913Z,100543.24
2022-08-02T10:06:29.478Z,100538.98
2022-08-02T10:08:34.930Z,100536.91
2022-08-02T10:10:39.633Z,100537.48
2022-08-02T10:12:44.307Z,100541.31
2022-08-02T10:14:48.878Z,100539.45
2022-08-02T10:16:53.467Z,100537.03
2022-08-02T10:18:58.229Z,100540.84
2022-08-02T10:21:02.959Z,100542.72
2022-08-02T10:23:08.485Z,100539.3
2022-08-02T10:25:13.208Z,100542.13
2022-08-02T10:27:17.843Z,100540.57
2022-08-02T10:29:22.456Z,100538.2
2022-08-02T10:31:27.182Z,100534.89
2022-08-02T10:33:31.794Z,100535.95
2022-08-02T10:35:36.418Z,100533.09
2022-08-02T10:37:41.138Z,100531.78
2022-08-02T10:39:51.701Z,100532.3
2022-08-02T10:41:56.321Z,100530.13
2022-08-02T10:44:02.179Z,100527.86
2022-08-02T10:46:06.788Z,100528.3
2022-08-02T10:48:11.412Z,100531.27
2022-08-02T10:50:16.110Z,100527.91
2022-08-02T10:52:20.957Z,100528.78
2022-08-02T10:54:25.583Z,100529.8
2022-08-02T10:56:32.079Z,100530
2022-08-02T10:58:37.702Z,100528.09
2022-08-02T11:00:42.470Z,100533.25
2022-08-02T11:02:47.228Z,100527.84
2022-08-02T11:04:57.999Z,100522.78
2022-08-02T11:07:02.516Z,100524.33
2022-08-02T11:09:07.242Z,100520.83
2022-08-02T11:11:11.966Z,100517.96
2022-08-02T11:13:16.601Z,100516.94
2022-08-02T11:15:21.210Z,100514.09
2022-08-02T11:17:25.836Z,100514.09
2022-08-02T11:19:30.434Z,100516.08
2022-08-02T11:21:35.055Z,100514.39
2022-08-02T11:23:46.659Z,100506.86
2022-08-02T11:26:12.580Z,100501.57
2022-08-02T11:28:19.014Z,100499.64
2022-08-02T11:30:28.671Z,100498.73
2022-08-02T11:32:33.409Z,100500.38
2022-08-02T11:34:39.556Z,100499.65
2022-08-02T11:36:44.181Z,100494.41
2022-08-02T11:38:48.805Z,100490.84
2022-08-02T11:40:58.514Z,100497.32
2022-08-02T11:43:03.367Z,100494.17
2022-08-02T11:45:07.986Z,100495.87
2022-08-02T11:47:12.609Z,100494.28
2022-08-02T11:49:17.479Z,100496.79
2022-08-02T11:51:22.473Z,100498.31
2022-08-02T11:53:26.954Z,100499.63
2022-08-02T11:55:31.509Z,100501.41
2022-08-02T11:58:06.191Z,100496.2
2022-08-02T12:00:10.952Z,100495.31
2022-08-02T12:02:16.239Z,100503.27
2022-08-02T12:04:24.533Z,100507.45
2022-08-02T12:06:30.344Z,100502.56
2022-08-02T12:08:36.356Z,100497.09
2022-08-02T12:10:41.612Z,100497.81
2022-08-02T12:12:46.253Z,100496.04
2022-08-02T12:14:53.541Z,100493.81
2022-08-02T12:16:58.094Z,100493.47
2022-08-02T12:19:02.876Z,100496.95
2022-08-02T12:21:07.373Z,100495.66
2022-08-02T12:23:11.929Z,100493.72
2022-08-02T12:25:35.425Z,100499.66
2022-08-02T12:27:40.287Z,100500.47
2022-08-02T12:30:00.258Z,100492.91
2022-08-02T12:32:04.814Z,100489.44
2022-08-02T12:34:09.538Z,100486.74
2022-08-02T12:36:14.819Z,100488.11
2022-08-02T12:38:19.396Z,100487.49
2022-08-02T12:40:26.889Z,100485.56
2022-08-02T12:42:31.613Z,100482.38
2022-08-02T12:44:36.448Z,100480.98
2022-08-02T12:46:46.692Z,100488.86
2022-08-02T12:49:19.386Z,100490.02
2022-08-02T12:51:24.301Z,100484.61
2022-08-02T12:54:01.078Z,100487.57
2022-08-02T12:56:05.698Z,100479.63
2022-08-02T12:58:10.512Z,100477.68
2022-08-02T13:00:15.024Z,100474.77
2022-08-02T13:02:20.773Z,100478.97
2022-08-02T13:04:26.174Z,100475.45
2022-08-02T13:06:44.719Z,100477.75
2022-08-02T13:08:49.639Z,100476.42
2022-08-02T13:10:54.079Z,100476.95
2022-08-02T13:12:58.570Z,100474.92
2022-08-02T13:15:03.025Z,100473.42
2022-08-02T13:17:15.967Z,100474.24
2022-08-02T13:19:20.593Z,100475.42
2022-08-02T13:22:03.766Z,100473.86
2022-08-02T13:24:55.437Z,100469.13
2022-08-02T13:27:09.288Z,100463.41
2022-08-02T13:29:14.203Z,100458.36
2022-08-02T13:31:37.363Z,100456.06
2022-08-02T13:33:42.074Z,100445.44
2022-08-02T13:35:46.706Z,100449.34
2022-08-02T13:37:51.333Z,100445.38
2022-08-02T13:40:22.670Z,100440.18
2022-08-02T13:42:27.600Z,100438.08
2022-08-02T13:44:32.331Z,100437.59
2022-08-02T13:46:36.840Z,100431.53
2022-08-02T13:48:48.567Z,100431.25
2022-08-02T13:50:53.460Z,100428.14
2022-08-02T13:52:57.973Z,100425.21
2022-08-02T13:55:02.414Z,100424.88
2022-08-02T13:57:15.864Z,100429.63
2022-08-02T13:59:58.991Z,100423.97
2022-08-02T14:02:04.348Z,100421.98
2022-08-02T14:04:10.665Z,100424.45
2022-08-02T14:06:15.368Z,100420.97
2022-08-02T14:08:19.957Z,100421.48
2022-08-02T14:10:24.494Z,100419.5
2022-08-02T14:12:34.454Z,100423.7
2022-08-02T14:14:38.957Z,100423.59
2022-08-02T14:16:45.482Z,100425.05
2022-08-02T14:18:50.002Z,100423.46
2022-08-02T14:20:54.675Z,100422.29
2022-08-02T14:22:59.301Z,100420.25
2022-08-02T14:25:10.470Z,100410.13
2022-08-02T14:27:15.065Z,100405.6
2022-08-02T14:29:19.721Z,100405.32
2022-08-02T14:31:24.509Z,100401
2022-08-02T14:33:29.264Z,100402.11
2022-08-02T14:35:34.014Z,100399.8
2022-08-02T14:37:38.813Z,100402.39
2022-08-02T14:40:01.976Z,100401.13
2022-08-02T14:42:06.689Z,100402.73
2022-08-02T14:44:11.521Z,100397.16
2022-08-02T14:46:16.036Z,100401.03
2022-08-02T14:48:20.637Z,100399.27
2022-08-02T14:50:25.383Z,100396.22
2022-08-02T14:52:29.967Z,100401.8
2022-08-02T14:54:34.536Z,100400.7
2022-08-02T14:56:39.213Z,100401.8
2022-08-02T14:58:43.760Z,100393.6
2022-08-02T15:00:48.783Z,100397.28
2022-08-02T15:02:57.092Z,100399.81
2022-08-02T15:05:01.691Z,100402.7
2022-08-02T15:07:06.435Z,100408.11
2022-08-02T15:09:11.366Z,100407.95
2022-08-02T15:11:16.194Z,100404.48
2022-08-02T15:13:22.349Z,100398.61
2022-08-02T15:15:28.401Z,100397
2022-08-02T15:17:33.644Z,100398.84
2022-08-02T15:20:05.778Z,100396.45
2022-08-02T15:22:30.289Z,100391.79
2022-08-02T15:24:36.748Z,100387.97
2022-08-02T15:26:41.329Z,100383.86
2022-08-02T15:28:45.876Z,100386.3
2022-08-02T15:30:58.907Z,100388.33
2022-08-02T15:33:03.522Z,100388.27
2022-08-02T15:35:08.255Z,100384.09
2022-08-02T15:37:13.054Z,100383.48
2022-08-02T15:39:17.576Z,100386.81
2022-08-02T15:41:22.318Z,100384.63
2022-08-02T15:43:26.957Z,100382.94
2022-08-02T15:45:31.563Z,100382.88
2022-08-02T15:47:36.182Z,100381.27
2022-08-02T15:49:42.915Z,100374.89
2022-08-02T15:51:47.676Z,100376.3
2022-08-02T15:53:52.280Z,100371.96
2022-08-02T15:56:11.058Z,100374.97
2022-08-02T15:58:22.391Z,100379.61
2022-08-02T16:00:27.257Z,100381.97
2022-08-02T16:02:31.744Z,100379.33
2022-08-02T16:04:36.598Z,100383.49
2022-08-02T16:06:41.196Z,100387.27
2022-08-02T16:08:55.676Z,100388.78
2022-08-02T16:11:00.266Z,100390.13
2022-08-02T16:13:04.911Z,100386.52
2022-08-02T16:15:09.641Z,100387.69
2022-08-02T16:17:14.218Z,100391.58
2022-08-02T16:19:59.113Z,100381.53
2022-08-02T16:22:03.750Z,100376.73
2022-08-02T16:24:08.349Z,100375.86
2022-08-02T16:26:12.986Z,100375.23
2022-08-02T16:28:17.606Z,100375.84
2022-08-02T16:30:22.227Z,100374.07
2022-08-02T16:32:26.858Z,100367.84
2022-08-02T16:35:07.382Z,100367.63
2022-08-02T16:37:13.865Z,100370.19
2022-08-02T16:39:19.238Z,100369.66
2022-08-02T16:41:24.040Z,100369.05
2022-08-02T16:43:58.258Z,100369.89
2022-08-02T16:46:03.085Z,100364.49
2022-08-02T16:48:13.436Z,100369.56
2022-08-02T16:50:29.023Z,100367.56
2022-08-02T16:52:34.502Z,100366.54
2022-08-02T16:54:39.076Z,100366.91
2022-08-02T16:56:43.895Z,100369.11
2022-08-02T16:58:48.887Z,100369.73
2022-08-02T17:00:55.246Z,100367.39
2022-08-02T17:03:14.352Z,100365.05
2022-08-02T17:05:22.145Z,100369.19
2022-08-02T17:08:18.053Z,100372.33
2022-08-02T17:10:22.791Z,100371.19
2022-08-02T17:12:27.820Z,100370.77
2022-08-02T17:14:32.548Z,100371.52
2022-08-02T17:16:59.374Z,100374.99
2022-08-02T17:19:04.011Z,100377.26
2022-08-02T17:21:10.887Z,100381.98
2022-08-02T17:23:18.987Z,100382.32
2022-08-02T17:25:25.754Z,100381.36
2022-08-02T17:27:36.008Z,100381.19
2022-08-02T17:29:43.192Z,100381.2
2022-08-02T17:32:12.664Z,100381.48
2022-08-02T17:34:20.683Z,100381.22
2022-08-02T17:36:31.658Z,100383.95
2022-08-02T17:38:51.867Z,100386.84
2022-08-02T17:40:56.674Z,100385.25
2022-08-02T17:43:01.663Z,100388.03
2022-08-02T22:59:09.287Z,100458.5
2022-08-02T23:01:19.509Z,100450.72
2022-08-02T23:03:24.283Z,100453.06
2022-08-02T23:05:28.861Z,100459.55
2022-08-02T23:07:39.739Z,100457.14
2022-08-02T23:09:44.599Z,100454.44
2022-08-02T23:11:49.192Z,100460.52
2022-08-02T23:13:54.018Z,100457.64
2022-08-02T23:15:58.534Z,100454.88
2022-08-02T23:18:03.158Z,100456.66
2022-08-02T23:20:07.985Z,100450.78
2022-08-02T23:22:12.669Z,100450.27
2022-08-02T23:24:18.900Z,100453.04
2022-08-02T23:26:23.482Z,100450.5
2022-08-02T23:28:28.215Z,100445.44
2022-08-02T23:30:32.831Z,100444.92
2022-08-02T23:32:38.172Z,100444.86
2022-08-02T23:34:42.767Z,100444.3
2022-08-02T23:36:47.437Z,100446.39
2022-08-02T23:44:14.725Z,100441.7
2022-08-02T23:46:19.808Z,100446.09
2022-08-02T23:48:24.533Z,100439.98
2022-08-02T23:50:29.149Z,100440.59
2022-08-02T23:52:33.765Z,100441.26
2022-08-02T23:54:38.393Z,100444.37
2022-08-02T23:56:43.116Z,100442.95
2022-08-02T23:58:47.841Z,100441.44
